Vineland Escarpment

*Note: All times are displayed in the local standard time of the station location.
**Rain - Equipment is designed to accurately record liquid precipitation; under conditions when precipitation is not in liquid form, the data displayed may not properly reflect rainfall values.

Date Max Temp
(°C)
Min Temp
(°C)
Avg Temp
(°C)
Rain (mm) Avg RH (%)
Fri, Dec 14, 2018 6.3 1.4 3.8 2.0 83.4
Thu, Dec 13, 2018 5.8 -1.2 1.4 0.6 89.6
Wed, Dec 12, 2018 1.5 -4.6 -1.1 0.0 84.9
Tue, Dec 11, 2018 -0.4 -2.2 -1.3 0.0 81.2
Mon, Dec 10, 2018 0.8 -2.7 -0.9 0.0 79.9
Sun, Dec 09, 2018 0.4 -7.5 -2.9 0.0 73.4
Sat, Dec 08, 2018 -0.5 -6.3 -3.5 0.0 74.8
DateTime Avg Temp (°C) Rain (mm) RH (%)
Sat, Dec 15, 2018 18:00 2.4 0.0 89.4
Sat, Dec 15, 2018 17:00 2.4 0.0 88.1
Sat, Dec 15, 2018 16:00 2.9 0.0 86.2
Sat, Dec 15, 2018 15:00 3.1 0.0 86.1
Sat, Dec 15, 2018 14:00 3.4 0.0 84.1
Sat, Dec 15, 2018 13:00 3.7 0.0 82.0
Sat, Dec 15, 2018 12:00 3.3 0.0 86.6
Sat, Dec 15, 2018 11:00 2.7 0.0 93.7
Sat, Dec 15, 2018 10:00 1.8 0.0 96.8
Sat, Dec 15, 2018 09:00 1.0 0.0 97.1
Sat, Dec 15, 2018 08:00 1.0 0.0 96.8
Sat, Dec 15, 2018 07:00 1.0 0.0 96.1
Sat, Dec 15, 2018 06:00 1.5 0.0 94.7
Sat, Dec 15, 2018 05:00 1.4 0.0 94.5
Sat, Dec 15, 2018 04:00 2.1 0.0 93.4
Sat, Dec 15, 2018 03:00 2.5 0.0 92.0
Sat, Dec 15, 2018 02:00 2.5 0.0 91.8
Sat, Dec 15, 2018 01:00 3.0 0.0 90.2
Sat, Dec 15, 2018 00:00 4.6 0.0 84.8
Fri, Dec 14, 2018 23:00 5.3 0.0 81.4
Fri, Dec 14, 2018 22:00 4.9 0.0 81.2
Fri, Dec 14, 2018 21:00 4.3 0.0 82.1
Fri, Dec 14, 2018 20:00 4.5 0.0 80.3
Fri, Dec 14, 2018 19:00 4.1 0.0 81.7
Fri, Dec 14, 2018 18:00 4.7 0.0 77.1
Fri, Dec 14, 2018 17:00 5.7 0.0 73.6
Fri, Dec 14, 2018 16:00 6.1 0.0 74.7
Fri, Dec 14, 2018 15:00 5.6 0.0 79.8
Fri, Dec 14, 2018 14:00 5.2 0.0 81.9
Fri, Dec 14, 2018 13:00 4.6 0.0 84.8
Fri, Dec 14, 2018 12:00 4.1 0.2 87.7
Fri, Dec 14, 2018 11:00 3.7 1.4 89.4
Fri, Dec 14, 2018 10:00 3.8 0.4 85.7
Fri, Dec 14, 2018 09:00 3.6 0.0 82.7
Fri, Dec 14, 2018 08:00 3.3 0.0 84.6
Fri, Dec 14, 2018 07:00 2.9 0.0 84.7
Fri, Dec 14, 2018 06:00 2.4 0.0 85.2
Fri, Dec 14, 2018 05:00 2.0 0.0 85.5
Fri, Dec 14, 2018 04:00 1.8 0.0 85.9
Fri, Dec 14, 2018 03:00 1.5 0.0 88.4
Fri, Dec 14, 2018 02:00 1.5 0.0 89.3
Fri, Dec 14, 2018 01:00 1.5 0.0 88.1
Fri, Dec 14, 2018 00:00 1.6 0.0 86.2
Thu, Dec 13, 2018 23:00 1.9 0.0 84.0
Thu, Dec 13, 2018 22:00 1.7 0.0 84.6
Thu, Dec 13, 2018 21:00 2.2 0.0 83.5
Thu, Dec 13, 2018 20:00 1.4 0.0 90.9
Thu, Dec 13, 2018 19:00 1.7 0.0 91.1


asterix Register now to access more data! asterix